Time;durP1;ratioP1;P1;durP2;ratioP2;P2;SDS_P1;SDS_P2;PMS_P1;PMS_P2;Temp;Humidity;BMP_temperature;BMP_pressure;BME280_temperature;BME280_humidity;BME280_pressure;Samples;Min_cycle;Max_cycle;Signal;HPM_P1;HPM_P2
2022/11/16 00:02:17;;;;;;;11.50;7.45;;;11.40;99.90;;;;;;5072114;28;20170;-50
2022/11/16 00:04:43;;;;;;;10.40;7.38;;;11.40;99.90;;;;;;5072507;28;20201;-50
2022/11/16 00:07:09;;;;;;;11.35;7.32;;;11.50;99.90;;;;;;5072272;28;20281;-50
2022/11/16 00:09:35;;;;;;;8.77;7.07;;;11.50;99.90;;;;;;5072370;28;20173;-50
2022/11/16 00:12:04;;;;;;;9.95;7.93;;;11.40;99.90;;;;;;5072836;28;20170;-50
2022/11/16 00:14:34;;;;;;;11.73;7.50;;;11.40;99.90;;;;;;5071665;28;20174;-50
2022/11/16 00:17:00;;;;;;;9.00;6.50;;;11.50;99.90;;;;;;5073189;28;20261;-50
2022/11/16 00:19:26;;;;;;;9.82;7.05;;;11.50;99.90;;;;;;5072727;28;20177;-50
2022/11/16 00:21:52;;;;;;;10.27;7.20;;;11.40;99.90;;;;;;5073227;28;20178;-53
2022/11/16 00:24:20;;;;;;;10.68;7.05;;;11.50;99.90;;;;;;5072553;28;20162;-53
2022/11/16 00:26:46;;;;;;;10.20;7.18;;;11.40;99.90;;;;;;5072922;28;20217;-51
2022/11/16 00:29:17;;;;;;;8.25;6.85;;;11.50;99.90;;;;;;5073757;28;20172;-53
2022/11/16 00:31:43;;;;;;;8.93;7.18;;;11.50;99.90;;;;;;5073352;28;20166;-51
2022/11/16 00:34:09;;;;;;;10.48;6.45;;;11.50;99.90;;;;;;5073204;28;20163;-50
2022/11/16 00:36:34;;;;;;;9.00;6.82;;;11.50;99.90;;;;;;5073116;28;20275;-50
2022/11/16 00:39:00;;;;;;;11.43;7.22;;;11.50;99.90;;;;;;5073177;28;20170;-50
2022/11/16 00:41:25;;;;;;;9.02;7.35;;;11.40;99.90;;;;;;5073133;28;20201;-50
2022/11/16 00:43:51;;;;;;;9.15;7.88;;;11.40;99.90;;;;;;5072947;28;20193;-50
2022/11/16 00:46:16;;;;;;;9.68;7.43;;;11.40;99.90;;;;;;5054886;28;20201;-50
2022/11/16 00:48:42;;;;;;;9.43;7.25;;;11.40;99.90;;;;;;5073190;28;20219;-51
2022/11/16 00:51:07;;;;;;;10.30;8.00;;;11.50;99.90;;;;;;5071934;28;20174;-51
2022/11/16 00:53:34;;;;;;;10.00;7.93;;;11.50;99.90;;;;;;5072775;28;20507;-51
2022/11/16 00:56:00;;;;;;;10.10;7.65;;;11.40;99.90;;;;;;5072676;28;20241;-51
2022/11/16 00:58:25;;;;;;;10.77;8.20;;;11.40;99.90;;;;;;5072736;28;20166;-50
2022/11/16 01:00:51;;;;;;;12.95;8.55;;;11.50;99.90;;;;;;5072454;28;20225;-51
2022/11/16 01:03:16;;;;;;;12.30;9.00;;;11.50;99.90;;;;;;5072617;28;20170;-51
2022/11/16 01:05:42;;;;;;;11.48;8.63;;;11.50;99.90;;;;;;5072832;28;20206;-51
2022/11/16 01:08:08;;;;;;;13.80;9.48;;;11.40;99.90;;;;;;5072533;28;20170;-52
2022/11/16 01:10:33;;;;;;;13.90;9.00;;;11.50;99.90;;;;;;5072248;28;20170;-51
2022/11/16 01:12:59;;;;;;;15.88;9.43;;;11.50;99.90;;;;;;5072348;28;20166;-51
2022/11/16 01:15:26;;;;;;;10.93;9.75;;;11.50;99.90;;;;;;5072338;28;20241;-53
2022/11/16 01:17:53;;;;;;;13.68;10.40;;;11.40;99.90;;;;;;5072378;28;20520;-51
2022/11/16 01:20:21;;;;;;;15.77;10.43;;;11.50;99.90;;;;;;5072437;28;20174;-52
2022/11/16 01:22:47;;;;;;;15.43;10.27;;;11.40;99.90;;;;;;5072217;28;20166;-53
2022/11/16 01:25:14;;;;;;;14.05;10.80;;;11.50;99.90;;;;;;5072476;28;20284;-51
2022/11/16 01:27:41;;;;;;;15.40;10.68;;;11.40;99.90;;;;;;5072572;28;20177;-50
2022/11/16 01:30:09;;;;;;;15.98;9.95;;;11.40;99.90;;;;;;5072300;28;20166;-50
2022/11/16 01:32:35;;;;;;;14.35;11.15;;;11.40;99.90;;;;;;5072221;28;20692;-50
2022/11/16 01:35:01;;;;;;;13.85;10.70;;;11.40;99.90;;;;;;5072231;28;20626;-50
2022/11/16 01:37:28;;;;;;;18.75;10.10;;;11.50;99.90;;;;;;5072113;28;20177;-50
2022/11/16 01:39:54;;;;;;;13.52;9.90;;;11.50;99.90;;;;;;5071970;28;20166;-50
2022/11/16 01:42:23;;;;;;;16.00;9.60;;;11.50;99.90;;;;;;5072070;28;20513;-50
2022/11/16 01:44:49;;;;;;;13.07;9.75;;;11.50;99.90;;;;;;5071899;28;20234;-50
2022/11/16 01:47:16;;;;;;;15.60;10.07;;;11.50;99.90;;;;;;5071948;28;20252;-50
2022/11/16 01:49:50;;;;;;;13.73;9.77;;;11.50;99.90;;;;;;5072311;28;20170;-50
2022/11/16 01:52:20;;;;;;;16.13;10.07;;;11.50;99.90;;;;;;5071843;28;20169;-50
2022/11/16 01:54:48;;;;;;;13.15;9.95;;;11.50;99.90;;;;;;5071670;28;20735;-50
2022/11/16 01:57:20;;;;;;;15.65;10.45;;;11.50;99.90;;;;;;5072085;28;20185;-50
2022/11/16 01:59:47;;;;;;;16.48;10.23;;;11.50;99.90;;;;;;5071615;28;20262;-50
2022/11/16 02:02:12;;;;;;;16.65;10.57;;;11.50;99.90;;;;;;5053812;28;20190;-50
2022/11/16 02:04:38;;;;;;;15.95;10.82;;;11.50;99.90;;;;;;5071647;28;20703;-50
2022/11/16 02:10:59;;;;;;;14.23;9.55;;;11.50;99.90;;;;;;5043666;28;20268;-50
2022/11/16 02:13:44;;;;;;;11.68;8.27;;;11.50;99.90;;;;;;5071641;28;20158;-50
2022/11/16 02:16:32;;;;;;;14.57;9.50;;;11.50;99.90;;;;;;5072011;28;20170;-50
2022/11/16 02:19:02;;;;;;;11.32;9.05;;;11.50;99.90;;;;;;5071573;28;20273;-51
2022/11/16 02:21:41;;;;;;;15.25;9.52;;;11.50;99.90;;;;;;5071586;28;20170;-50
2022/11/16 02:24:42;;;;;;;14.73;9.15;;;11.50;99.90;;;;;;5053527;28;20656;-50
2022/11/16 02:27:31;;;;;;;12.60;8.50;;;11.50;99.90;;;;;;5071666;28;20190;-50
2022/11/16 02:29:57;;;;;;;11.93;8.70;;;11.60;99.90;;;;;;5071715;28;20239;-50
2022/11/16 02:32:38;;;;;;;14.90;9.75;;;11.60;99.90;;;;;;5071491;28;20626;-50
2022/11/16 02:35:04;;;;;;;13.50;7.90;;;11.50;99.90;;;;;;5071446;28;20601;-50
2022/11/16 02:37:39;;;;;;;12.00;8.70;;;11.60;99.90;;;;;;5071722;28;20162;-50
2022/11/16 02:40:09;;;;;;;15.00;9.50;;;11.50;99.90;;;;;;5071482;28;20178;-50
2022/11/16 02:42:50;;;;;;;12.15;9.60;;;11.50;99.90;;;;;;5071428;28;20198;-50
2022/11/16 02:45:22;;;;;;;13.07;9.95;;;11.50;99.90;;;;;;5071217;28;20754;-50
2022/11/16 02:47:50;;;;;;;15.25;9.70;;;11.50;99.90;;;;;;5071398;28;20249;-50
2022/11/16 02:50:18;;;;;;;14.20;10.32;;;11.50;99.90;;;;;;5071311;28;20216;-50
2022/11/16 02:52:44;;;;;;;15.75;9.95;;;11.50;99.90;;;;;;5071932;28;20205;-52
2022/11/16 02:55:10;;;;;;;17.67;10.15;;;11.40;99.90;;;;;;5071540;28;20193;-50
2022/11/16 02:57:44;;;;;;;13.60;9.55;;;11.50;99.90;;;;;;5071203;28;20181;-50
2022/11/16 03:00:17;;;;;;;17.80;10.95;;;11.50;99.90;;;;;;5071485;28;20226;-50
2022/11/16 03:03:24;;;;;;;14.00;9.95;;;11.40;99.90;;;;;;5071451;28;20158;-51
2022/11/16 03:05:59;;;;;;;12.85;9.52;;;11.50;99.90;;;;;;5071270;28;20209;-50
2022/11/16 03:08:33;;;;;;;12.48;9.07;;;11.40;99.90;;;;;;5071157;28;20244;-50
2022/11/16 03:13:58;;;;;;;17.88;10.60;;;11.40;99.90;;;;;;5071357;28;20236;-50
2022/11/16 03:16:33;;;;;;;14.13;9.93;;;11.40;99.90;;;;;;5074546;28;20693;-53
2022/11/16 03:19:02;;;;;;;13.52;9.25;;;11.50;99.90;;;;;;5074471;28;20212;-51
2022/11/16 03:21:38;;;;;;;16.88;11.13;;;11.40;99.90;;;;;;5074373;28;20162;-52
2022/11/16 03:24:05;;;;;;;17.00;10.18;;;11.40;99.90;;;;;;5074547;28;20668;-50
2022/11/16 03:26:57;;;;;;;15.02;8.60;;;11.40;99.90;;;;;;5074319;28;20213;-50
2022/11/16 03:29:40;;;;;;;8.85;6.70;;;11.40;99.90;;;;;;5074533;28;20166;-50
2022/11/16 03:32:48;;;;;;;9.98;5.25;;;11.40;99.90;;;;;;5074354;28;20256;-50
2022/11/16 03:35:20;;;;;;;5.03;4.20;;;11.30;99.90;;;;;;5061275;28;20186;-51
2022/11/16 03:37:48;;;;;;;10.05;5.20;;;11.40;99.90;;;;;;5074330;28;20846;-51
2022/11/16 03:40:16;;;;;;;9.63;5.55;;;11.40;99.90;;;;;;5074316;28;20634;-50
2022/11/16 03:42:44;;;;;;;5.70;4.07;;;11.40;99.90;;;;;;5074812;28;20174;-50
2022/11/16 03:45:11;;;;;;;5.50;3.13;;;11.30;99.90;;;;;;5074620;28;20288;-50
2022/11/16 03:47:37;;;;;;;4.60;2.85;;;11.30;99.90;;;;;;5074109;28;20185;-50
2022/11/16 03:50:03;;;;;;;5.57;2.60;;;11.30;99.90;;;;;;5074039;28;20170;-50
2022/11/16 03:52:28;;;;;;;4.93;2.25;;;11.30;99.90;;;;;;5073953;28;20268;-51
2022/11/16 03:54:54;;;;;;;1.52;1.40;;;11.30;99.90;;;;;;5056089;28;20173;-53
2022/11/16 03:57:19;;;;;;;2.88;1.65;;;11.50;99.90;;;;;;5074184;28;20193;-51
2022/11/16 03:59:45;;;;;;;4.20;1.77;;;11.40;99.90;;;;;;5073687;28;20270;-50
2022/11/16 04:02:11;;;;;;;6.05;2.15;;;11.40;99.90;;;;;;5074171;28;20194;-50
2022/11/16 04:29:17;;;;;;;9.82;5.25;;;11.50;99.90;;;;;;5053318;28;20258;-50
2022/11/16 04:39:58;;;;;;;5.93;3.83;;;11.40;99.90;;;;;;5053455;28;20185;-50
2022/11/16 04:42:23;;;;;;;5.10;3.35;;;11.40;99.90;;;;;;5053054;28;20167;-50
2022/11/16 04:47:33;;;;;;;5.65;3.20;;;11.40;99.90;;;;;;5052969;28;20182;-50
2022/11/16 04:49:58;;;;;;;5.43;3.38;;;11.40;99.90;;;;;;5052861;28;20163;-50
2022/11/16 04:52:24;;;;;;;4.90;2.92;;;11.30;99.90;;;;;;5052928;28;20177;-51
2022/11/16 04:54:49;;;;;;;7.88;4.78;;;11.40;99.90;;;;;;5052774;28;20265;-50
2022/11/16 04:57:15;;;;;;;6.95;3.47;;;11.40;99.90;;;;;;5052761;28;20194;-50
2022/11/16 04:59:40;;;;;;;8.88;6.07;;;11.50;99.90;;;;;;5053002;28;20222;-50
2022/11/16 05:02:09;;;;;;;15.98;9.07;;;11.40;99.90;;;;;;5052685;28;20699;-51
2022/11/16 05:04:35;;;;;;;11.05;5.93;;;11.50;99.90;;;;;;5052933;28;20177;-49
2022/11/16 05:07:01;;;;;;;11.15;5.70;;;11.40;99.90;;;;;;5052853;28;20240;-49
2022/11/16 05:09:27;;;;;;;15.68;6.03;;;11.50;99.90;;;;;;5052521;28;20159;-49
2022/11/16 05:11:52;;;;;;;9.15;5.10;;;11.50;99.90;;;;;;5052496;28;20179;-50
2022/11/16 05:14:18;;;;;;;6.15;4.03;;;11.50;99.90;;;;;;5052448;28;20167;-49
2022/11/16 05:16:43;;;;;;;8.05;4.10;;;11.50;99.90;;;;;;5052677;28;20245;-49
2022/11/16 05:21:53;;;;;;;3.72;2.30;;;11.50;99.90;;;;;;5052360;28;20539;-49
2022/11/16 05:24:34;;;;;;;2.45;1.95;;;11.40;99.90;;;;;;5051985;28;20163;-49
2022/11/16 05:27:05;;;;;;;6.55;2.85;;;11.50;99.90;;;;;;5051417;28;20722;-49
2022/11/16 05:29:31;;;;;;;6.82;2.20;;;11.50;99.90;;;;;;5051986;28;20166;-49
2022/11/16 05:31:58;;;;;;;4.25;2.20;;;11.50;99.90;;;;;;5052139;28;20175;-49
2022/11/16 05:34:23;;;;;;;3.90;2.22;;;11.50;99.90;;;;;;5052169;28;20163;-50
2022/11/16 05:36:49;;;;;;;5.00;1.83;;;11.40;99.90;;;;;;5051882;28;20618;-49
2022/11/16 05:39:15;;;;;;;3.55;1.60;;;11.30;99.90;;;;;;5051852;28;20163;-49
2022/11/16 05:41:40;;;;;;;5.03;1.65;;;11.30;99.90;;;;;;5052571;28;20254;-49
2022/11/16 05:44:06;;;;;;;19.52;2.10;;;11.30;99.90;;;;;;5052051;28;20167;-52
2022/11/16 05:46:32;;;;;;;5.85;1.80;;;11.20;99.90;;;;;;5051737;28;20209;-50
2022/11/16 05:48:57;;;;;;;6.13;1.80;;;11.20;99.90;;;;;;5051884;28;20246;-50
2022/11/16 05:51:23;;;;;;;4.15;1.52;;;11.20;99.90;;;;;;5051872;28;20189;-50
2022/11/16 05:53:49;;;;;;;2.28;1.58;;;11.10;99.90;;;;;;5051893;28;20648;-50
2022/11/16 05:56:15;;;;;;;5.90;1.60;;;11.10;99.90;;;;;;5051789;28;20198;-49
2022/11/16 05:58:41;;;;;;;2.05;1.60;;;11.00;99.90;;;;;;5051955;28;20665;-49
2022/11/16 06:01:08;;;;;;;4.43;1.58;;;11.00;99.90;;;;;;5051674;28;20646;-50
2022/11/16 06:03:35;;;;;;;4.28;1.80;;;11.00;99.90;;;;;;5051642;28;20174;-52
2022/11/16 06:06:01;;;;;;;3.80;1.75;;;11.00;99.90;;;;;;5051547;28;20224;-49
2022/11/16 06:08:27;;;;;;;4.28;1.70;;;10.90;99.90;;;;;;5051619;28;20171;-49
2022/11/16 06:10:52;;;;;;;5.13;2.22;;;10.90;99.90;;;;;;5051630;28;20174;-49
2022/11/16 06:13:18;;;;;;;4.88;1.80;;;10.80;99.90;;;;;;5051589;28;20670;-49
2022/11/16 06:15:44;;;;;;;8.45;2.60;;;10.90;99.90;;;;;;5051678;28;20174;-49
2022/11/16 06:18:10;;;;;;;9.63;1.95;;;10.80;99.90;;;;;;5051844;28;20205;-49
2022/11/16 06:20:39;;;;;;;8.00;2.30;;;10.70;99.90;;;;;;5051496;28;20281;-49
2022/11/16 06:23:05;;;;;;;4.07;2.05;;;10.80;99.90;;;;;;5051480;28;20163;-49
2022/11/16 06:25:31;;;;;;;8.50;2.25;;;10.70;99.90;;;;;;5051464;28;20234;-49
2022/11/16 06:27:57;;;;;;;6.25;2.50;;;10.70;99.90;;;;;;5051518;28;20724;-50
2022/11/16 06:30:24;;;;;;;4.53;2.33;;;10.70;99.90;;;;;;5051580;28;20666;-49
2022/11/16 06:32:49;;;;;;;6.68;2.38;;;10.60;99.90;;;;;;5051490;28;20532;-50
2022/11/16 06:35:15;;;;;;;5.22;2.42;;;10.60;99.90;;;;;;5051458;28;20646;-49
2022/11/16 06:37:41;;;;;;;5.63;2.17;;;10.60;99.90;;;;;;5051858;28;20576;-49
2022/11/16 06:40:08;;;;;;;7.85;2.20;;;10.60;99.90;;;;;;5051314;28;20170;-51
2022/11/16 06:42:34;;;;;;;5.57;2.05;;;10.60;99.90;;;;;;5051408;28;20167;-49
2022/11/16 06:44:59;;;;;;;6.55;2.03;;;10.60;99.90;;;;;;5051289;28;20205;-49
2022/11/16 06:47:25;;;;;;;3.25;1.75;;;10.50;99.90;;;;;;5051415;28;20197;-49
2022/11/16 06:49:50;;;;;;;4.85;1.70;;;10.60;99.90;;;;;;5052923;28;20202;-50
2022/11/16 06:52:16;;;;;;;4.30;2.08;;;10.50;99.90;;;;;;5055174;28;20210;-50
2022/11/16 06:54:41;;;;;;;7.05;2.35;;;10.50;99.90;;;;;;5055809;28;20173;-49
2022/11/16 06:57:07;;;;;;;6.95;1.90;;;10.50;99.90;;;;;;5054949;28;20167;-49
2022/11/16 06:59:33;;;;;;;4.22;1.80;;;10.40;99.90;;;;;;5054914;28;20257;-49
2022/11/16 07:01:58;;;;;;;6.97;1.80;;;10.40;99.90;;;;;;5055057;28;20194;-49
2022/11/16 07:04:24;;;;;;;4.47;2.53;;;10.30;99.90;;;;;;5055182;28;20232;-50
2022/11/16 07:06:49;;;;;;;5.72;2.10;;;10.30;99.90;;;;;;5054793;28;20206;-49
2022/11/16 07:09:15;;;;;;;7.70;2.20;;;10.30;99.90;;;;;;5054879;28;20171;-49
2022/11/16 07:11:40;;;;;;;4.75;1.48;;;10.30;99.90;;;;;;5055212;28;20563;-50
2022/11/16 07:14:06;;;;;;;9.00;2.03;;;10.20;99.90;;;;;;5054821;28;20561;-48
2022/11/16 07:16:34;;;;;;;3.42;1.52;;;10.20;99.90;;;;;;5054718;28;20553;-48
2022/11/16 07:19:00;;;;;;;7.45;2.08;;;10.20;99.90;;;;;;5054563;28;20175;-48
2022/11/16 07:21:26;;;;;;;7.20;1.77;;;10.30;99.90;;;;;;5054758;28;20206;-48
2022/11/16 07:23:52;;;;;;;3.30;1.58;;;10.20;99.90;;;;;;5054742;28;20195;-49
2022/11/16 07:26:18;;;;;;;5.97;1.70;;;10.30;99.90;;;;;;5054347;28;20268;-48
2022/11/16 07:28:43;;;;;;;13.23;2.33;;;10.20;99.90;;;;;;5054355;28;20171;-48
2022/11/16 07:31:11;;;;;;;7.43;2.03;;;10.20;99.90;;;;;;5054826;28;20181;-49
2022/11/16 07:33:37;;;;;;;5.65;1.52;;;10.20;99.90;;;;;;5054326;28;20254;-50
2022/11/16 07:36:06;;;;;;;4.43;1.67;;;10.30;99.90;;;;;;5054301;28;20163;-49
2022/11/16 07:38:32;;;;;;;7.78;2.22;;;10.30;99.90;;;;;;5036444;28;20170;-49
2022/11/16 07:41:02;;;;;;;4.15;2.20;;;10.30;99.90;;;;;;5054286;28;20228;-50
2022/11/16 07:43:33;;;;;;;5.60;1.73;;;10.30;99.90;;;;;;5053911;28;20159;-49
2022/11/16 07:46:09;;;;;;;5.60;2.00;;;10.30;99.90;;;;;;5054119;28;20214;-49
2022/11/16 07:48:35;;;;;;;4.00;2.22;;;10.30;99.90;;;;;;5053758;28;20174;-49
2022/11/16 07:51:05;;;;;;;15.23;3.05;;;10.30;99.90;;;;;;5053569;28;20565;-50
2022/11/16 07:53:30;;;;;;;7.00;3.13;;;10.30;99.90;;;;;;5053978;28;20185;-50
2022/11/16 07:55:56;;;;;;;11.55;3.33;;;10.50;99.90;;;;;;5053606;28;20174;-50
2022/11/16 07:58:23;;;;;;;14.60;3.70;;;10.50;99.90;;;;;;5053379;28;20167;-50
2022/11/16 08:00:48;;;;;;;15.05;4.43;;;10.50;99.90;;;;;;5052898;28;20243;-51
2022/11/16 08:03:15;;;;;;;8.63;3.05;;;10.60;99.90;;;;;;5053359;28;20166;-50
2022/11/16 08:05:40;;;;;;;16.52;5.13;;;10.50;99.90;;;;;;5053665;28;20201;-50
2022/11/16 08:08:06;;;;;;;16.38;3.80;;;10.50;99.90;;;;;;5053533;28;20163;-50
2022/11/16 08:10:32;;;;;;;11.82;4.90;;;10.50;99.90;;;;;;5053788;28;20695;-50
2022/11/16 08:12:58;;;;;;;11.38;3.08;;;10.50;99.90;;;;;;5035537;28;20216;-50
2022/11/16 08:15:24;;;;;;;6.88;2.63;;;10.50;99.90;;;;;;5053534;28;20178;-50
2022/11/16 08:17:50;;;;;;;7.82;2.25;;;10.50;99.90;;;;;;5053568;28;20190;-50
2022/11/16 08:20:16;;;;;;;7.18;2.50;;;10.40;99.90;;;;;;5053661;28;20171;-50
2022/11/16 08:22:42;;;;;;;7.00;1.85;;;10.40;99.90;;;;;;5053836;28;20646;-50
2022/11/16 08:25:08;;;;;;;6.47;2.13;;;11.60;99.90;;;;;;5053872;28;20555;-50
2022/11/16 08:27:34;;;;;;;12.10;3.85;;;10.50;99.90;;;;;;5053254;28;20619;-50
2022/11/16 08:30:02;;;;;;;19.90;5.68;;;10.60;99.90;;;;;;5053149;28;20166;-50
2022/11/16 08:32:28;;;;;;;7.13;3.55;;;10.70;99.90;;;;;;5053300;28;20219;-50
2022/11/16 08:34:54;;;;;;;5.82;2.60;;;10.80;99.90;;;;;;5053219;28;20703;-50
2022/11/16 08:37:19;;;;;;;6.65;2.20;;;10.90;99.90;;;;;;5053174;28;20175;-50
2022/11/16 08:39:45;;;;;;;11.60;5.28;;;10.90;99.90;;;;;;5053169;28;20167;-49
2022/11/16 08:42:11;;;;;;;9.48;1.77;;;10.90;99.90;;;;;;5053403;28;20175;-50
2022/11/16 08:44:36;;;;;;;10.32;2.67;;;10.90;99.90;;;;;;5053007;28;20162;-50
2022/11/16 08:47:02;;;;;;;10.27;3.75;;;11.00;99.90;;;;;;5052986;28;20213;-49
2022/11/16 08:49:28;;;;;;;7.25;2.88;;;11.00;99.90;;;;;;5053225;28;20175;-50
2022/11/16 08:51:53;;;;;;;8.18;3.88;;;10.90;99.90;;;;;;5052914;28;20588;-50
2022/11/16 08:54:19;;;;;;;7.80;2.83;;;10.80;99.90;;;;;;5052607;28;20159;-49
2022/11/16 08:56:44;;;;;;;10.32;2.70;;;10.80;99.90;;;;;;5052482;28;20167;-49
2022/11/16 08:59:11;;;;;;;13.52;5.43;;;10.70;99.90;;;;;;5053119;28;20206;-49
2022/11/16 09:01:37;;;;;;;13.15;4.60;;;10.50;99.90;;;;;;5053038;28;20665;-50
2022/11/16 09:04:02;;;;;;;7.10;2.30;;;10.60;99.90;;;;;;5052279;28;20194;-50
2022/11/16 09:06:28;;;;;;;7.95;2.10;;;10.50;99.90;;;;;;5052510;28;20662;-50
2022/11/16 09:08:55;;;;;;;10.82;2.83;;;10.70;99.90;;;;;;5052784;28;20256;-49
2022/11/16 09:11:23;;;;;;;6.95;2.72;;;10.90;99.90;;;;;;5052452;28;20532;-50
2022/11/16 09:13:50;;;;;;;9.60;2.88;;;11.10;99.90;;;;;;5052029;28;20167;-51
2022/11/16 09:16:19;;;;;;;16.90;5.13;;;11.20;99.90;;;;;;5052512;28;20228;-49
2022/11/16 09:18:46;;;;;;;8.60;2.78;;;11.30;99.90;;;;;;5052548;28;20236;-50
2022/11/16 09:21:15;;;;;;;6.72;2.22;;;11.50;99.90;;;;;;5052710;28;20177;-50
2022/11/16 09:23:41;;;;;;;8.55;2.05;;;11.50;99.90;;;;;;5052607;28;20221;-50
2022/11/16 09:26:06;;;;;;;7.22;1.90;;;11.60;99.90;;;;;;5052394;28;20599;-50
2022/11/16 09:28:32;;;;;;;9.02;3.28;;;11.70;99.90;;;;;;5052408;28;20586;-50
2022/11/16 09:31:00;;;;;;;8.77;4.35;;;11.70;99.90;;;;;;5052171;28;20166;-50
2022/11/16 09:33:29;;;;;;;7.25;2.20;;;11.80;99.90;;;;;;5052308;28;20560;-50
2022/11/16 09:36:00;;;;;;;9.60;2.50;;;11.90;99.90;;;;;;5052088;28;20167;-50
2022/11/16 09:38:26;;;;;;;17.00;8.32;;;11.90;99.90;;;;;;5051955;28;20577;-50
2022/11/16 09:40:51;;;;;;;4.70;1.80;;;12.20;99.90;;;;;;5052021;28;20175;-50
2022/11/16 09:43:40;;;;;;;12.50;3.55;;;12.30;99.90;;;;;;5051978;28;20249;-50
2022/11/16 09:46:16;;;;;;;5.65;1.60;;;12.40;99.90;;;;;;5034012;28;20272;-50
2022/11/16 09:48:42;;;;;;;11.13;3.58;;;12.40;99.90;;;;;;5052278;28;20172;-50
2022/11/16 09:51:13;;;;;;;7.43;2.30;;;12.40;99.90;;;;;;5052286;28;20171;-50
2022/11/16 09:53:47;;;;;;;6.85;1.92;;;12.50;99.90;;;;;;5052075;28;20201;-49
2022/11/16 09:56:22;;;;;;;8.00;1.90;;;12.60;99.90;;;;;;5051832;28;20170;-49
2022/11/16 09:59:19;;;;;;;4.70;1.88;;;12.70;99.90;;;;;;5051674;28;20162;-50
2022/11/16 10:01:48;;;;;;;6.75;2.28;;;12.70;99.90;;;;;;5051747;28;20232;-50
2022/11/16 10:04:21;;;;;;;9.98;4.13;;;12.80;99.90;;;;;;5051901;28;20316;-50
2022/11/16 10:07:26;;;;;;;4.93;2.50;;;12.90;99.90;;;;;;5051478;28;20213;-50
2022/11/16 10:09:52;;;;;;;7.07;2.13;;;12.90;99.90;;;;;;5051670;28;20208;-50
2022/11/16 10:12:42;;;;;;;9.05;2.13;;;12.90;99.90;;;;;;5051590;28;20219;-50
2022/11/16 10:15:38;;;;;;;8.07;2.33;;;13.00;99.90;;;;;;5051773;28;20159;-50
2022/11/16 10:18:18;;;;;;;6.25;1.90;;;13.10;99.90;;;;;;5051147;28;20170;-51
2022/11/16 10:21:02;;;;;;;5.85;2.00;;;13.10;99.90;;;;;;5051278;28;20615;-49
2022/11/16 10:23:54;;;;;;;9.10;3.03;;;13.00;99.90;;;;;;5051870;28;20170;-50
2022/11/16 10:26:52;;;;;;;4.95;1.90;;;13.10;99.90;;;;;;5055600;28;20202;-50
2022/11/16 10:29:45;;;;;;;9.18;2.15;;;13.10;99.90;;;;;;5056486;28;20171;-46
2022/11/16 10:32:21;;;;;;;6.07;2.20;;;13.20;99.90;;;;;;5075132;28;20166;-49
2022/11/16 10:34:57;;;;;;;8.85;2.58;;;14.90;99.90;;;;;;5074493;28;20268;-49
2022/11/16 10:37:29;;;;;;;8.27;1.85;;;13.30;99.90;;;;;;5041421;28;20174;-52
2022/11/16 10:39:54;;;;;;;5.13;1.98;;;13.30;99.90;;;;;;5068097;28;20239;-56
2022/11/16 10:42:34;;;;;;;6.65;1.63;;;13.40;99.90;;;;;;5073959;28;20202;-47
2022/11/16 10:45:19;;;;;;;5.97;2.30;;;13.50;99.90;;;;;;5053763;28;20181;-51
2022/11/16 10:48:13;;;;;;;5.53;2.25;;;13.60;99.90;;;;;;5053794;28;20650;-45
2022/11/16 10:50:46;;;;;;;4.60;1.83;;;13.70;99.90;;;;;;5054312;28;20175;-50
2022/11/16 10:53:14;;;;;;;6.28;2.38;;;13.70;99.90;;;;;;5053789;28;20208;-47
2022/11/16 10:55:40;;;;;;;4.18;1.73;;;13.70;99.90;;;;;;5054275;28;20179;-45
2022/11/16 10:58:06;;;;;;;6.55;1.88;;;13.50;99.90;;;;;;5053921;28;20167;-50
2022/11/16 11:00:47;;;;;;;5.75;2.47;;;13.60;99.90;;;;;;5053602;28;20582;-50
2022/11/16 11:03:13;;;;;;;5.13;1.85;;;13.50;99.90;;;;;;5053386;28;20220;-48
2022/11/16 11:05:54;;;;;;;11.57;4.80;;;13.70;99.90;;;;;;5053587;28;20700;-50
2022/11/16 11:08:29;;;;;;;6.90;3.13;;;13.70;99.90;;;;;;5053585;28;20265;-50
2022/11/16 11:14:04;;;;;;;3.38;1.73;;;13.80;99.90;;;;;;5052924;28;20212;-48
2022/11/16 11:16:29;;;;;;;7.85;2.33;;;13.80;99.90;;;;;;5053010;28;20661;-50
2022/11/16 11:18:55;;;;;;;7.80;2.50;;;13.90;99.90;;;;;;5053130;28;20175;-49
2022/11/16 11:21:24;;;;;;;9.63;1.70;;;13.80;99.90;;;;;;5053118;28;20175;-50
2022/11/16 11:23:55;;;;;;;5.38;1.90;;;13.80;99.90;;;;;;5053176;28;20499;-50
2022/11/16 11:26:39;;;;;;;5.80;1.77;;;13.80;99.90;;;;;;5053096;28;20214;-49
2022/11/16 11:29:19;;;;;;;5.93;1.85;;;13.70;99.90;;;;;;5052946;28;20257;-50
2022/11/16 11:31:48;;;;;;;3.85;1.63;;;13.50;99.90;;;;;;5053368;28;20167;-53
2022/11/16 11:34:16;;;;;;;5.88;2.35;;;13.30;99.90;;;;;;5064695;28;20174;-51
2022/11/16 11:36:47;;;;;;;9.48;2.20;;;13.40;99.90;;;;;;5072181;28;20178;-50
2022/11/16 11:39:12;;;;;;;2.10;1.25;;;13.40;99.90;;;;;;5072748;28;20177;-49
2022/11/16 11:41:39;;;;;;;3.67;1.70;;;13.40;99.90;;;;;;5073176;28;20154;-50
2022/11/16 11:44:13;;;;;;;5.85;1.55;;;13.70;99.90;;;;;;5072701;28;20181;-50
2022/11/16 11:46:44;;;;;;;5.38;1.45;;;13.70;99.90;;;;;;5072717;28;20687;-50
2022/11/16 11:49:18;;;;;;;5.85;1.35;;;13.70;99.90;;;;;;5072914;28;20626;-50
2022/11/16 11:51:46;;;;;;;9.13;2.42;;;13.50;99.90;;;;;;5072482;28;20177;-50
2022/11/16 11:54:26;;;;;;;3.72;1.80;;;13.70;99.90;;;;;;5072499;28;20169;-50
2022/11/16 11:56:52;;;;;;;7.30;1.35;;;13.80;99.90;;;;;;5072028;28;20165;-49
2022/11/16 11:59:20;;;;;;;5.40;1.70;;;13.50;99.90;;;;;;5072271;28;20278;-50
2022/11/16 12:02:10;;;;;;;5.80;1.40;;;13.40;99.90;;;;;;5072284;28;20178;-49
2022/11/16 12:05:03;;;;;;;3.95;1.27;;;13.50;99.90;;;;;;5054372;28;20713;-50
2022/11/16 12:08:07;;;;;;;6.32;1.85;;;13.40;99.90;;;;;;5071761;28;20185;-51
2022/11/16 12:10:54;;;;;;;6.50;1.60;;;13.30;99.90;;;;;;4990582;28;20164;-50
2022/11/16 12:13:56;;;;;;;3.55;1.20;;;13.30;99.90;;;;;;4990648;28;20328;-49
2022/11/16 12:16:32;;;;;;;4.78;1.30;;;13.30;99.90;;;;;;5060821;28;20660;-49
2022/11/16 12:19:31;;;;;;;6.88;1.60;;;13.30;99.90;;;;;;5072007;28;20203;-50
2022/11/16 12:22:18;;;;;;;6.57;1.42;;;13.30;99.90;;;;;;5034107;28;20696;-49
2022/11/16 12:25:16;;;;;;;9.05;2.75;;;13.40;99.90;;;;;;5071899;28;20173;-49
2022/11/16 12:27:52;;;;;;;6.43;1.60;;;13.50;99.90;;;;;;5071880;28;20204;-49
2022/11/16 12:30:21;;;;;;;4.72;1.50;;;13.60;99.90;;;;;;5071876;28;20236;-50
2022/11/16 12:33:04;;;;;;;5.30;1.33;;;13.70;99.90;;;;;;5071767;28;20218;-54
2022/11/16 12:35:55;;;;;;;4.25;1.63;;;13.60;99.90;;;;;;5071550;28;20180;-53
2022/11/16 12:38:26;;;;;;;4.97;1.73;;;13.60;99.90;;;;;;5072031;28;20166;-48
2022/11/16 12:41:11;;;;;;;4.47;1.40;;;13.50;99.90;;;;;;5071611;28;20243;-48
2022/11/16 12:43:58;;;;;;;4.97;1.80;;;13.50;99.90;;;;;;5071780;28;20185;-49
2022/11/16 12:46:32;;;;;;;5.40;2.00;;;13.50;99.90;;;;;;5071166;28;20248;-48
2022/11/16 12:49:28;;;;;;;2.88;1.83;;;13.60;99.90;;;;;;5071405;28;20697;-51
2022/11/16 12:52:16;;;;;;;6.95;1.88;;;13.60;99.90;;;;;;5071250;28;20162;-51
2022/11/16 12:55:10;;;;;;;3.55;1.45;;;13.60;99.90;;;;;;5070948;28;20213;-54
2022/11/16 12:57:49;;;;;;;4.88;1.70;;;13.60;99.90;;;;;;5071240;28;20661;-48
2022/11/16 13:00:18;;;;;;;3.85;1.60;;;13.70;99.90;;;;;;5071232;28;20222;-52
2022/11/16 13:03:09;;;;;;;4.30;1.42;;;13.70;99.90;;;;;;5071048;28;20300;-46
2022/11/16 13:05:55;;;;;;;4.35;1.60;;;13.80;99.90;;;;;;5071014;28;20200;-51
2022/11/16 13:08:52;;;;;;;3.97;1.63;;;13.80;99.90;;;;;;5071079;28;20170;-52
2022/11/16 13:11:57;;;;;;;8.18;1.75;;;13.80;99.90;;;;;;5071056;28;20180;-52
2022/11/16 13:14:43;;;;;;;4.70;1.55;;;13.90;99.90;;;;;;5067200;28;20209;-53
2022/11/16 13:17:26;;;;;;;1.73;1.13;;;13.90;99.90;;;;;;5070942;28;20520;-52
2022/11/16 13:20:19;;;;;;;5.88;1.40;;;13.70;99.90;;;;;;5071004;28;20166;-54
2022/11/16 13:23:03;;;;;;;6.57;1.42;;;13.70;99.90;;;;;;5070968;28;20559;-53
2022/11/16 13:25:58;;;;;;;4.72;1.30;;;13.70;99.90;;;;;;5071099;28;20543;-51
2022/11/16 13:28:39;;;;;;;5.18;1.73;;;13.70;99.90;;;;;;5056635;28;20194;-52
2022/11/16 13:31:22;;;;;;;2.75;1.58;;;13.70;99.90;;;;;;5071171;28;20219;-50
2022/11/16 13:33:57;;;;;;;5.57;1.75;;;13.70;99.90;;;;;;5070789;28;20170;-49
2022/11/16 13:36:42;;;;;;;9.90;3.95;;;13.60;99.90;;;;;;5070467;28;20246;-48
2022/11/16 13:39:09;;;;;;;9.65;3.85;;;13.50;99.90;;;;;;5052952;28;20169;-53
2022/11/16 13:41:37;;;;;;;5.20;1.48;;;13.60;99.90;;;;;;5070146;28;20166;-49
2022/11/16 13:44:11;;;;;;;9.02;4.55;;;13.50;99.90;;;;;;5070201;28;20510;-54
2022/11/16 13:46:46;;;;;;;4.60;1.45;;;13.50;99.90;;;;;;5070408;28;20209;-50
2022/11/16 13:49:23;;;;;;;6.65;1.83;;;13.50;99.90;;;;;;5070152;28;20207;-52
2022/11/16 13:51:55;;;;;;;4.80;1.65;;;13.50;99.90;;;;;;5070188;28;20573;-51
2022/11/16 13:54:34;;;;;;;3.88;1.50;;;13.40;99.90;;;;;;5070305;28;20176;-50